Time;durP1;ratioP1;P1;durP2;ratioP2;P2;SDS_P1;SDS_P2;PMS_P1;PMS_P2;Temp;Humidity;BMP_temperature;BMP_pressure;BME280_temperature;BME280_humidity;BME280_pressure;Samples;Min_cycle;Max_cycle;Signal;HPM_P1;HPM_P2
2022/03/29 00:02:07;;;;;;;7.88;2.13;;;;;;;;;;5054904;28;20476;-75
2022/03/29 00:04:34;;;;;;;4.82;1.83;;;;;;;;;;5055037;28;20037;-75
2022/03/29 00:07:01;;;;;;;3.88;1.90;;;;;;;;;;5052260;28;20507;-75
2022/03/29 00:09:28;;;;;;;9.30;2.05;;;;;;;;;;5049892;28;20423;-74
2022/03/29 00:11:55;;;;;;;5.28;2.08;;;;;;;;;;5049496;28;20074;-75
2022/03/29 00:14:22;;;;;;;6.25;2.50;;;;;;;;;;5049159;28;20020;-74
2022/03/29 00:16:48;;;;;;;3.80;1.58;;;;;;;;;;5051138;28;20107;-74
2022/03/29 00:19:15;;;;;;;15.32;2.65;;;;;;;;;;5070269;28;20365;-74
2022/03/29 00:21:42;;;;;;;17.80;2.08;;;;;;;;;;5054786;28;20040;-74
2022/03/29 00:24:09;;;;;;;8.93;2.20;;;;;;;;;;5055974;28;20021;-74
2022/03/29 00:26:36;;;;;;;11.35;2.35;;;;;;;;;;5074688;28;20104;-74
2022/03/29 00:29:03;;;;;;;9.40;2.40;;;;;;;;;;5072443;28;20116;-74
2022/03/29 00:31:30;;;;;;;12.95;3.10;;;;;;;;;;5068729;28;20024;-75
2022/03/29 00:33:56;;;;;;;9.80;2.50;;;;;;;;;;5069179;28;20108;-74
2022/03/29 00:36:23;;;;;;;6.03;2.30;;;;;;;;;;5069109;28;20021;-74
2022/03/29 00:38:50;;;;;;;10.30;2.30;;;;;;;;;;5070099;28;20031;-74
2022/03/29 00:41:17;;;;;;;7.33;2.17;;;;;;;;;;5074258;28;20016;-74
2022/03/29 00:43:43;;;;;;;8.00;2.10;;;;;;;;;;5074295;28;20086;-74
2022/03/29 00:46:10;;;;;;;12.97;2.40;;;;;;;;;;5074199;28;20036;-74
2022/03/29 00:48:38;;;;;;;12.00;2.23;;;;;;;;;;5073807;28;20099;-74
2022/03/29 00:51:07;;;;;;;4.87;2.23;;;;;;;;;;5072644;28;20048;-74
2022/03/29 00:53:33;;;;;;;5.57;2.50;;;;;;;;;;5068772;28;20372;-74
2022/03/29 00:56:02;;;;;;;15.47;2.43;;;;;;;;;;5048058;28;20037;-74
2022/03/29 00:58:29;;;;;;;17.30;3.77;;;;;;;;;;5048595;28;20048;-74
2022/03/29 01:01:01;;;;;;;16.30;3.37;;;;;;;;;;5049121;28;20356;-74
2022/03/29 01:03:28;;;;;;;9.83;3.40;;;;;;;;;;5053378;28;20021;-74
2022/03/29 01:05:55;;;;;;;8.63;3.33;;;;;;;;;;5053742;28;20087;-74
2022/03/29 01:08:21;;;;;;;8.40;3.50;;;;;;;;;;5053829;28;20080;-74
2022/03/29 01:10:48;;;;;;;14.40;3.63;;;;;;;;;;5053802;28;20017;-74
2022/03/29 01:13:16;;;;;;;12.07;2.70;;;;;;;;;;5053081;28;20074;-74
2022/03/29 01:15:42;;;;;;;23.37;4.00;;;;;;;;;;5048544;28;20017;-74
2022/03/29 01:18:09;;;;;;;12.30;2.57;;;;;;;;;;5048353;28;20098;-74
2022/03/29 01:20:37;;;;;;;13.67;2.47;;;;;;;;;;5048210;28;20056;-74
2022/03/29 01:23:04;;;;;;;17.60;3.50;;;;;;;;;;5052436;28;20054;-74
2022/03/29 01:25:40;;;;;;;11.40;3.50;;;;;;;;;;5073477;28;20117;-74
2022/03/29 01:28:07;;;;;;;13.27;3.40;;;;;;;;;;5073525;28;20020;-74
2022/03/29 01:30:35;;;;;;;12.23;3.07;;;;;;;;;;5073383;28;20074;-73
2022/03/29 01:33:05;;;;;;;11.40;3.20;;;;;;;;;;5073362;28;20352;-74
2022/03/29 01:35:32;;;;;;;17.70;3.77;;;;;;;;;;5072193;28;20024;-73
2022/03/29 01:37:59;;;;;;;13.90;3.60;;;;;;;;;;5067951;28;20021;-74
2022/03/29 01:40:27;;;;;;;8.57;3.17;;;;;;;;;;5067977;28;20810;-74
2022/03/29 01:42:58;;;;;;;7.17;3.27;;;;;;;;;;5067827;28;20108;-74
2022/03/29 01:45:29;;;;;;;12.07;4.17;;;;;;;;;;5067706;28;20067;-74
2022/03/29 01:47:56;;;;;;;14.37;4.03;;;;;;;;;;5073031;28;20345;-74
2022/03/29 01:50:23;;;;;;;13.43;4.33;;;;;;;;;;5069253;28;20348;-74
2022/03/29 01:52:50;;;;;;;11.43;3.47;;;;;;;;;;5072330;28;20020;-74
2022/03/29 01:55:17;;;;;;;7.67;3.43;;;;;;;;;;5072914;28;20055;-74
2022/03/29 01:57:44;;;;;;;14.23;3.50;;;;;;;;;;5072353;28;20037;-74
2022/03/29 02:02:57;;;;;;;8.93;3.00;;;;;;;;;;5065809;28;20059;-74
2022/03/29 02:05:24;;;;;;;9.77;3.00;;;;;;;;;;5058747;28;20033;-74
2022/03/29 02:07:51;;;;;;;7.63;2.87;;;;;;;;;;5047212;28;20029;-74
2022/03/29 02:10:18;;;;;;;10.70;3.03;;;;;;;;;;5052650;28;20025;-74
2022/03/29 02:12:46;;;;;;;11.10;3.20;;;;;;;;;;5052680;28;20070;-74
2022/03/29 02:15:13;;;;;;;10.70;2.50;;;;;;;;;;5052610;28;20013;-72
2022/03/29 02:17:40;;;;;;;8.77;3.20;;;;;;;;;;5052102;28;20025;-73
2022/03/29 02:20:07;;;;;;;8.80;3.40;;;;;;;;;;5052415;28;20089;-73
2022/03/29 02:22:34;;;;;;;10.30;4.10;;;;;;;;;;5047009;28;20123;-73
2022/03/29 02:25:01;;;;;;;8.87;3.60;;;;;;;;;;5047071;28;20025;-75
2022/03/29 02:27:28;;;;;;;10.90;3.47;;;;;;;;;;5047030;28;20036;-73
2022/03/29 02:29:55;;;;;;;6.50;3.10;;;;;;;;;;5046899;28;20021;-73
2022/03/29 02:32:21;;;;;;;10.43;3.57;;;;;;;;;;5052141;28;20100;-73
2022/03/29 02:34:48;;;;;;;6.90;3.33;;;;;;;;;;5063555;28;20029;-75
2022/03/29 02:37:15;;;;;;;7.53;3.40;;;;;;;;;;5072371;28;20085;-73
2022/03/29 02:39:42;;;;;;;8.13;3.40;;;;;;;;;;5072331;28;20068;-75
2022/03/29 02:42:09;;;;;;;8.07;3.27;;;;;;;;;;5072158;28;20071;-75
2022/03/29 02:44:36;;;;;;;14.33;2.80;;;;;;;;;;5067012;28;20044;-74
2022/03/29 02:47:03;;;;;;;9.70;3.67;;;;;;;;;;5066921;28;20082;-75
2022/03/29 02:49:30;;;;;;;11.13;3.33;;;;;;;;;;5067281;28;20020;-74
2022/03/29 02:51:57;;;;;;;6.47;3.80;;;;;;;;;;5064614;28;20027;-75
2022/03/29 02:54:24;;;;;;;6.00;3.53;;;;;;;;;;5031366;28;20013;-75
2022/03/29 02:56:51;;;;;;;9.83;3.67;;;;;;;;;;5032108;28;20029;-74
2022/03/29 02:59:18;;;;;;;8.23;3.70;;;;;;;;;;5032108;28;20064;-74
2022/03/29 03:01:45;;;;;;;7.60;3.33;;;;;;;;;;5032013;28;20043;-75
2022/03/29 03:04:14;;;;;;;7.07;3.40;;;;;;;;;;5032022;28;20026;-75
2022/03/29 03:06:42;;;;;;;8.87;3.57;;;;;;;;;;5027399;28;20039;-74
2022/03/29 03:09:09;;;;;;;6.33;3.60;;;;;;;;;;5026386;28;20087;-75
2022/03/29 03:11:36;;;;;;;6.83;3.27;;;;;;;;;;5026769;28;20476;-75
2022/03/29 03:14:03;;;;;;;5.93;3.40;;;;;;;;;;5046365;28;20426;-75
2022/03/29 03:16:30;;;;;;;7.17;3.40;;;;;;;;;;5050490;28;20028;-75
2022/03/29 03:18:57;;;;;;;10.50;3.77;;;;;;;;;;5052803;28;20036;-74
2022/03/29 03:21:24;;;;;;;7.33;3.57;;;;;;;;;;5055793;28;20464;-74
2022/03/29 03:23:51;;;;;;;5.93;3.33;;;;;;;;;;5055748;28;20032;-74
2022/03/29 03:26:18;;;;;;;8.27;3.10;;;;;;;;;;5055200;28;20170;-74
2022/03/29 03:28:45;;;;;;;7.43;3.77;;;;;;;;;;5051902;28;20411;-75
2022/03/29 03:31:12;;;;;;;6.50;3.63;;;;;;;;;;5050703;28;20024;-75
2022/03/29 03:33:39;;;;;;;11.43;3.53;;;;;;;;;;5065079;28;20024;-75
2022/03/29 03:36:06;;;;;;;7.80;3.80;;;;;;;;;;5070346;28;20031;-74
2022/03/29 03:38:33;;;;;;;6.17;3.53;;;;;;;;;;5073499;28;20016;-74
2022/03/29 03:41:00;;;;;;;9.47;3.70;;;;;;;;;;5075574;28;20040;-74
2022/03/29 03:43:27;;;;;;;7.50;3.73;;;;;;;;;;5075605;28;20074;-74
2022/03/29 03:45:54;;;;;;;8.80;3.43;;;;;;;;;;5075485;28;20028;-74
2022/03/29 03:48:22;;;;;;;10.53;3.43;;;;;;;;;;5059488;28;20372;-76
2022/03/29 03:50:49;;;;;;;10.53;3.33;;;;;;;;;;5052063;28;20028;-74
2022/03/29 03:53:16;;;;;;;8.63;3.00;;;;;;;;;;5050159;28;20387;-74
2022/03/29 03:55:43;;;;;;;7.33;2.57;;;;;;;;;;5050196;28;20044;-75
2022/03/29 03:58:13;;;;;;;13.03;3.57;;;;;;;;;;5050015;28;20401;-77
2022/03/29 04:00:41;;;;;;;6.30;3.07;;;;;;;;;;5052392;28;20035;-76
2022/03/29 04:03:09;;;;;;;8.40;2.90;;;;;;;;;;5070818;28;20451;-76
2022/03/29 04:05:36;;;;;;;4.63;2.50;;;;;;;;;;5055088;28;20068;-76
2022/03/29 04:08:03;;;;;;;6.03;2.87;;;;;;;;;;5055041;28;20100;-76
2022/03/29 04:10:31;;;;;;;6.43;3.73;;;;;;;;;;5054881;28;20033;-75
2022/03/29 04:12:57;;;;;;;6.27;3.10;;;;;;;;;;5063449;28;20028;-76
2022/03/29 04:15:24;;;;;;;6.73;2.97;;;;;;;;;;5069540;28;20032;-76
2022/03/29 04:17:51;;;;;;;7.37;3.00;;;;;;;;;;5069583;28;20732;-76
2022/03/29 04:20:18;;;;;;;4.40;2.80;;;;;;;;;;5069867;28;20043;-76
2022/03/29 04:22:45;;;;;;;7.00;2.50;;;;;;;;;;5071836;28;20044;-75
2022/03/29 04:25:12;;;;;;;5.00;2.20;;;;;;;;;;5074715;28;20093;-76
2022/03/29 04:27:39;;;;;;;6.17;2.30;;;;;;;;;;5060271;28;20108;-76
2022/03/29 04:30:06;;;;;;;6.37;2.40;;;;;;;;;;5054214;28;20017;-75
2022/03/29 04:32:36;;;;;;;12.60;3.40;;;;;;;;;;5054486;28;20025;-76
2022/03/29 04:35:03;;;;;;;9.37;2.60;;;;;;;;;;5051727;28;20029;-76
2022/03/29 04:37:30;;;;;;;4.97;2.57;;;;;;;;;;5049373;28;20029;-76
2022/03/29 04:39:57;;;;;;;6.13;2.40;;;;;;;;;;5049179;28;20029;-75
2022/03/29 04:42:24;;;;;;;5.57;2.87;;;;;;;;;;5065820;28;20082;-75
2022/03/29 04:44:51;;;;;;;7.97;2.77;;;;;;;;;;5068029;28;20029;-76
2022/03/29 04:47:18;;;;;;;9.47;3.13;;;;;;;;;;5074020;28;20059;-76
2022/03/29 04:49:45;;;;;;;11.40;3.50;;;;;;;;;;5074346;28;20556;-76
2022/03/29 04:52:12;;;;;;;11.27;3.00;;;;;;;;;;5074020;28;20032;-76
2022/03/29 04:54:39;;;;;;;12.50;3.17;;;;;;;;;;5074288;28;20112;-76
2022/03/29 04:57:05;;;;;;;7.97;2.70;;;;;;;;;;5072190;28;20468;-76
2022/03/29 04:59:32;;;;;;;7.40;2.30;;;;;;;;;;5068976;28;20048;-75
2022/03/29 05:01:59;;;;;;;9.13;2.50;;;;;;;;;;5052804;28;20025;-76
2022/03/29 05:04:25;;;;;;;6.23;2.80;;;;;;;;;;5048420;28;20043;-76
2022/03/29 05:06:52;;;;;;;5.27;2.23;;;;;;;;;;5049954;28;20537;-75
2022/03/29 05:09:19;;;;;;;7.63;1.93;;;;;;;;;;5053894;28;20048;-75
2022/03/29 05:11:45;;;;;;;5.97;2.37;;;;;;;;;;5057166;28;20070;-74
2022/03/29 05:14:12;;;;;;;7.13;2.30;;;;;;;;;;5073667;28;20028;-75
2022/03/29 05:16:39;;;;;;;3.67;2.17;;;;;;;;;;5073685;28;20025;-75
2022/03/29 05:19:06;;;;;;;7.03;2.50;;;;;;;;;;5055966;28;20028;-75
2022/03/29 05:21:32;;;;;;;5.90;2.53;;;;;;;;;;5048205;28;20053;-77
2022/03/29 05:23:59;;;;;;;6.67;2.70;;;;;;;;;;5048473;28;20085;-75
2022/03/29 05:26:26;;;;;;;11.10;2.97;;;;;;;;;;5048302;28;20033;-75
2022/03/29 05:28:53;;;;;;;7.63;2.50;;;;;;;;;;5049048;28;20051;-76
2022/03/29 05:31:19;;;;;;;7.43;2.63;;;;;;;;;;5068166;28;20472;-75
2022/03/29 05:33:46;;;;;;;4.37;2.07;;;;;;;;;;5043030;28;20361;-73
2022/03/29 05:36:13;;;;;;;7.53;2.33;;;;;;;;;;5050734;28;20018;-77
2022/03/29 05:38:40;;;;;;;9.90;2.00;;;;;;;;;;5062409;28;20031;-77
2022/03/29 05:41:09;;;;;;;4.87;1.80;;;;;;;;;;5064537;28;20040;-75
2022/03/29 05:43:36;;;;;;;6.77;1.87;;;;;;;;;;5047729;28;20044;-73
2022/03/29 05:48:56;;;;;;;4.60;2.20;;;;;;;;;;5047052;28;20040;-74
2022/03/29 05:51:25;;;;;;;6.10;2.65;;;;;;;;;;5029140;28;20099;-75
2022/03/29 05:53:53;;;;;;;6.47;2.67;;;;;;;;;;5033271;28;20021;-74
2022/03/29 05:56:20;;;;;;;6.37;2.77;;;;;;;;;;5033205;28;20021;-75
2022/03/29 05:58:47;;;;;;;10.50;2.50;;;;;;;;;;5033014;28;20021;-74
2022/03/29 06:01:14;;;;;;;7.00;2.73;;;;;;;;;;5032999;28;20083;-72
2022/03/29 06:03:40;;;;;;;5.23;2.40;;;;;;;;;;5031119;28;20037;-72
2022/03/29 06:06:08;;;;;;;6.23;2.47;;;;;;;;;;5030867;28;20485;-72
2022/03/29 06:08:35;;;;;;;5.83;2.60;;;;;;;;;;5047887;28;20036;-74
2022/03/29 06:11:04;;;;;;;4.60;2.60;;;;;;;;;;5047856;28;20021;-73
2022/03/29 06:13:31;;;;;;;5.73;2.50;;;;;;;;;;5047238;28;20472;-73
2022/03/29 06:15:58;;;;;;;6.07;3.07;;;;;;;;;;5050624;28;20060;-73
2022/03/29 06:18:24;;;;;;;5.00;2.60;;;;;;;;;;5050610;28;20635;-73
2022/03/29 06:20:51;;;;;;;5.77;2.80;;;;;;;;;;5050553;28;20020;-73
2022/03/29 06:23:19;;;;;;;5.83;2.53;;;;;;;;;;5050694;28;20051;-73
2022/03/29 06:25:46;;;;;;;5.70;2.73;;;;;;;;;;5049601;28;20116;-73
2022/03/29 06:28:14;;;;;;;6.90;2.70;;;;;;;;;;5057879;28;20024;-73
2022/03/29 06:30:40;;;;;;;9.07;2.77;;;;;;;;;;5066930;28;20422;-73
2022/03/29 06:33:07;;;;;;;6.57;2.97;;;;;;;;;;5067211;28;20052;-73
2022/03/29 06:35:37;;;;;;;5.43;2.27;;;;;;;;;;5066806;28;20112;-73
2022/03/29 06:38:04;;;;;;;4.47;2.53;;;;;;;;;;5072400;28;20082;-73
2022/03/29 06:40:31;;;;;;;7.37;3.23;;;;;;;;;;5072301;28;20483;-73
2022/03/29 06:42:57;;;;;;;5.17;2.50;;;;;;;;;;5072477;28;20047;-73
2022/03/29 06:45:25;;;;;;;4.37;2.70;;;;;;;;;;5072229;28;20093;-73
2022/03/29 06:47:51;;;;;;;5.17;2.50;;;;;;;;;;5057595;28;20101;-73
2022/03/29 06:50:18;;;;;;;6.07;2.80;;;;;;;;;;5046784;28;20028;-73
2022/03/29 06:52:46;;;;;;;5.30;2.60;;;;;;;;;;5046735;28;20058;-73
2022/03/29 06:55:13;;;;;;;4.60;2.67;;;;;;;;;;5046450;28;20025;-73
2022/03/29 06:57:40;;;;;;;5.07;2.93;;;;;;;;;;5046940;28;20052;-73
2022/03/29 07:00:09;;;;;;;5.40;2.63;;;;;;;;;;5052203;28;20089;-73
2022/03/29 07:02:36;;;;;;;5.80;2.60;;;;;;;;;;5051955;28;20124;-73
2022/03/29 07:05:03;;;;;;;4.93;2.90;;;;;;;;;;5062459;28;20472;-73
2022/03/29 07:07:30;;;;;;;5.60;3.00;;;;;;;;;;5071641;28;20505;-73
2022/03/29 07:12:48;;;;;;;6.70;2.88;;;;;;;;;;5066781;28;20047;-73
2022/03/29 07:15:15;;;;;;;6.70;2.87;;;;;;;;;;5066774;28;20637;-73
2022/03/29 07:17:42;;;;;;;6.13;3.10;;;;;;;;;;5066505;28;20021;-73
2022/03/29 07:20:09;;;;;;;7.50;3.57;;;;;;;;;;5066983;28;20069;-73
2022/03/29 07:22:36;;;;;;;7.43;2.57;;;;;;;;;;5072009;28;20539;-73
2022/03/29 07:25:02;;;;;;;5.40;2.90;;;;;;;;;;5071702;28;20034;-73
2022/03/29 07:27:30;;;;;;;4.63;2.50;;;;;;;;;;5071940;28;20464;-72
2022/03/29 07:29:59;;;;;;;5.83;2.43;;;;;;;;;;5071879;28;20052;-72
2022/03/29 07:32:27;;;;;;;6.47;2.53;;;;;;;;;;5070747;28;20021;-73
2022/03/29 07:34:54;;;;;;;5.23;2.80;;;;;;;;;;5048103;28;20029;-73
2022/03/29 07:37:21;;;;;;;6.33;3.30;;;;;;;;;;5046636;28;20017;-73
2022/03/29 07:39:53;;;;;;;6.30;3.50;;;;;;;;;;5046589;28;20380;-72
2022/03/29 07:42:23;;;;;;;5.27;2.90;;;;;;;;;;5046538;28;20017;-73
2022/03/29 07:44:50;;;;;;;5.60;3.43;;;;;;;;;;5051598;28;20021;-73
2022/03/29 07:47:21;;;;;;;8.50;3.10;;;;;;;;;;5051261;28;20025;-73
2022/03/29 07:49:47;;;;;;;9.40;3.60;;;;;;;;;;5051867;28;20037;-73
2022/03/29 07:52:15;;;;;;;6.90;3.57;;;;;;;;;;5058055;28;20410;-73
2022/03/29 07:54:41;;;;;;;6.83;3.20;;;;;;;;;;5070161;28;20029;-72
2022/03/29 07:57:09;;;;;;;6.57;3.73;;;;;;;;;;5066434;28;20020;-72
2022/03/29 07:59:37;;;;;;;6.90;3.17;;;;;;;;;;5066229;28;20029;-73
2022/03/29 08:02:05;;;;;;;7.47;3.70;;;;;;;;;;5065944;28;20052;-73
2022/03/29 08:04:32;;;;;;;7.13;3.30;;;;;;;;;;5066418;28;20125;-72
2022/03/29 08:06:59;;;;;;;8.00;3.70;;;;;;;;;;5075080;28;20035;-73
2022/03/29 08:09:27;;;;;;;6.10;2.90;;;;;;;;;;5075356;28;20484;-72
2022/03/29 08:11:55;;;;;;;6.00;2.67;;;;;;;;;;5074924;28;20020;-73
2022/03/29 08:14:28;;;;;;;34.03;4.37;;;;;;;;;;5075098;28;20053;-73
2022/03/29 08:16:56;;;;;;;4.73;2.90;;;;;;;;;;5074062;28;20028;-73
2022/03/29 08:19:25;;;;;;;8.93;3.57;;;;;;;;;;5069588;28;20056;-72
2022/03/29 08:21:52;;;;;;;5.40;2.87;;;;;;;;;;5056149;28;20467;-72
2022/03/29 08:24:22;;;;;;;7.10;3.27;;;;;;;;;;5049602;28;20025;-73
2022/03/29 08:26:51;;;;;;;6.90;3.90;;;;;;;;;;5049611;28;20051;-73
2022/03/29 08:29:19;;;;;;;4.77;2.60;;;;;;;;;;5054750;28;20456;-72
2022/03/29 08:31:47;;;;;;;6.77;3.50;;;;;;;;;;5054437;28;20419;-73
2022/03/29 08:34:14;;;;;;;9.87;3.13;;;;;;;;;;5054451;28;20028;-72
2022/03/29 08:36:41;;;;;;;8.70;3.00;;;;;;;;;;5054649;28;20540;-72
2022/03/29 08:39:08;;;;;;;8.43;2.60;;;;;;;;;;5054044;28;20017;-72
2022/03/29 08:41:37;;;;;;;5.27;2.47;;;;;;;;;;5049145;28;20025;-73
2022/03/29 08:44:04;;;;;;;5.37;2.70;;;;;;;;;;5064605;28;20473;-72
2022/03/29 08:46:38;;;;;;;7.37;2.60;;;;;;;;;;5048594;28;20086;-73
2022/03/29 08:49:06;;;;;;;5.35;2.50;;;;;;;;;;5049219;28;20819;-72
2022/03/29 08:51:33;;;;;;;5.00;2.63;;;;;;;;;;5064276;28;20459;-73
2022/03/29 08:54:00;;;;;;;8.80;2.63;;;;;;;;;;5071516;28;20036;-72
2022/03/29 08:56:27;;;;;;;6.43;3.30;;;;;;;;;;5054225;28;20096;-72
2022/03/29 08:58:54;;;;;;;8.80;3.40;;;;;;;;;;5054144;28;20025;-73
2022/03/29 09:01:21;;;;;;;5.70;2.70;;;;;;;;;;5053074;28;20710;-72
2022/03/29 09:04:03;;;;;;;7.83;2.67;;;;;;;;;;5048911;28;20270;-72
2022/03/29 09:06:31;;;;;;;5.63;2.70;;;;;;;;;;5048747;28;20286;-72
2022/03/29 09:08:57;;;;;;;5.23;2.67;;;;;;;;;;5048590;28;20387;-72
2022/03/29 09:11:24;;;;;;;6.73;2.47;;;;;;;;;;5048982;28;20289;-72
2022/03/29 09:14:04;;;;;;;6.97;2.40;;;;;;;;;;5053490;28;20250;-73
2022/03/29 09:16:34;;;;;;;5.10;2.80;;;;;;;;;;5052720;28;20962;-72
2022/03/29 09:19:01;;;;;;;5.13;2.40;;;;;;;;;;5053890;28;20734;-72
2022/03/29 09:21:28;;;;;;;4.90;2.27;;;;;;;;;;5053907;28;20729;-72
2022/03/29 09:24:06;;;;;;;4.80;2.00;;;;;;;;;;5062486;28;20277;-72
2022/03/29 09:26:33;;;;;;;5.73;2.60;;;;;;;;;;5068361;28;20434;-72
2022/03/29 09:29:00;;;;;;;3.67;2.33;;;;;;;;;;5068331;28;20252;-73
2022/03/29 09:31:27;;;;;;;4.77;2.30;;;;;;;;;;5068369;28;20264;-72
2022/03/29 09:34:14;;;;;;;9.13;2.50;;;;;;;;;;5069117;28;20265;-72
2022/03/29 09:36:43;;;;;;;4.13;2.30;;;;;;;;;;5073009;28;20257;-72
2022/03/29 09:39:29;;;;;;;6.47;2.33;;;;;;;;;;5073322;28;20345;-72
2022/03/29 09:42:00;;;;;;;7.10;2.30;;;;;;;;;;5073251;28;20250;-72
2022/03/29 09:44:37;;;;;;;6.87;2.27;;;;;;;;;;5073181;28;20246;-72
2022/03/29 09:47:07;;;;;;;5.10;2.37;;;;;;;;;;5070004;28;20249;-72
2022/03/29 09:50:09;;;;;;;7.00;3.00;;;;;;;;;;5068050;28;20748;-72
2022/03/29 09:52:37;;;;;;;6.03;2.50;;;;;;;;;;4986193;28;20271;-72
2022/03/29 09:55:09;;;;;;;6.63;2.13;;;;;;;;;;5027938;28;20263;-72
2022/03/29 09:57:59;;;;;;;4.83;2.40;;;;;;;;;;5032123;28;20286;-72
2022/03/29 10:00:26;;;;;;;6.13;2.67;;;;;;;;;;5024923;28;20766;-72
2022/03/29 10:02:53;;;;;;;6.53;2.90;;;;;;;;;;5032974;28;20273;-72
2022/03/29 10:05:20;;;;;;;8.33;2.83;;;;;;;;;;5032901;28;20347;-72
2022/03/29 10:09:25;;;;;;;5.43;2.50;;;;;;;;;;5033026;28;20316;-72
2022/03/29 10:10:46;;;;;;;8.18;3.20;;;;;;;;;;5027065;28;20596;-73
2022/03/29 10:13:13;;;;;;;4.27;2.77;;;;;;;;;;5027751;28;20056;-72
2022/03/29 10:15:41;;;;;;;4.80;2.87;;;;;;;;;;5027656;28;20255;-73
2022/03/29 10:18:08;;;;;;;4.67;2.10;;;;;;;;;;5046002;28;20280;-72
2022/03/29 10:20:36;;;;;;;6.20;2.20;;;;;;;;;;5052623;28;20604;-72
2022/03/29 10:23:03;;;;;;;6.60;2.33;;;;;;;;;;5052602;28;20258;-72
2022/03/29 10:25:31;;;;;;;4.77;2.43;;;;;;;;;;5051987;28;20286;-72
2022/03/29 10:27:59;;;;;;;4.83;2.50;;;;;;;;;;5052453;28;20756;-73
2022/03/29 10:30:36;;;;;;;10.43;3.77;;;;;;;;;;5051767;28;20265;-73
2022/03/29 10:33:24;;;;;;;6.17;2.90;;;;;;;;;;5047168;28;20261;-72
2022/03/29 10:36:00;;;;;;;4.77;2.27;;;;;;;;;;5047242;28;20343;-73
2022/03/29 10:38:45;;;;;;;4.87;2.70;;;;;;;;;;5047087;28;20254;-72
2022/03/29 10:41:30;;;;;;;6.43;2.75;;;;;;;;;;5049294;28;20246;-72
2022/03/29 10:44:08;;;;;;;3.78;2.17;;;;;;;;;;5052452;28;20025;-72
2022/03/29 10:46:38;;;;;;;9.90;2.70;;;;;;;;;;5065446;28;20058;-72
2022/03/29 10:49:21;;;;;;;7.77;3.20;;;;;;;;;;5072239;28;20798;-73
2022/03/29 10:51:52;;;;;;;4.40;2.33;;;;;;;;;;5072310;28;20314;-72
2022/03/29 10:54:26;;;;;;;4.10;2.30;;;;;;;;;;5067569;28;20273;-73
2022/03/29 10:56:59;;;;;;;5.63;2.10;;;;;;;;;;5067079;28;20261;-72
2022/03/29 10:59:27;;;;;;;6.27;2.17;;;;;;;;;;5066946;28;20258;-72
2022/03/29 11:02:29;;;;;;;3.33;1.90;;;;;;;;;;5060723;28;20364;-72
2022/03/29 11:05:06;;;;;;;4.17;2.10;;;;;;;;;;4990534;28;20883;-72
2022/03/29 11:07:34;;;;;;;6.53;1.97;;;;;;;;;;5043961;28;20258;-73
2022/03/29 11:10:12;;;;;;;6.27;2.50;;;;;;;;;;5052022;28;20344;-72
2022/03/29 11:12:59;;;;;;;5.87;3.00;;;;;;;;;;5052127;28;20290;-72
2022/03/29 11:16:02;;;;;;;7.60;2.43;;;;;;;;;;5049661;28;20349;-72
2022/03/29 11:18:31;;;;;;;5.80;2.90;;;;;;;;;;5044543;28;20276;-72
2022/03/29 11:21:05;;;;;;;8.70;2.73;;;;;;;;;;5046758;28;20312;-72
2022/03/29 11:23:39;;;;;;;7.77;3.40;;;;;;;;;;5046699;28;20319;-72
2022/03/29 11:26:13;;;;;;;5.73;3.00;;;;;;;;;;5060881;28;20764;-72
2022/03/29 11:28:50;;;;;;;8.27;3.00;;;;;;;;;;5072016;28;20616;-73
2022/03/29 11:31:18;;;;;;;6.77;2.50;;;;;;;;;;5071898;28;20311;-72
2022/03/29 11:33:49;;;;;;;6.03;2.60;;;;;;;;;;5071385;28;20326;-72
2022/03/29 11:36:16;;;;;;;7.03;2.53;;;;;;;;;;5071903;28;20262;-72
2022/03/29 11:38:44;;;;;;;4.63;2.80;;;;;;;;;;5067443;28;20257;-73
2022/03/29 11:41:27;;;;;;;10.93;2.73;;;;;;;;;;5069093;28;20261;-72
2022/03/29 11:44:07;;;;;;;5.63;3.17;;;;;;;;;;5069883;28;20272;-72
2022/03/29 11:46:49;;;;;;;7.30;3.00;;;;;;;;;;5070219;28;20292;-72
2022/03/29 11:49:17;;;;;;;7.70;2.53;;;;;;;;;;5075489;28;20745;-72
2022/03/29 11:51:44;;;;;;;5.47;3.03;;;;;;;;;;5075428;28;20268;-72
2022/03/29 11:54:11;;;;;;;4.80;2.33;;;;;;;;;;5070674;28;20266;-72
2022/03/29 11:56:38;;;;;;;5.07;2.37;;;;;;;;;;5055380;28;20254;-72
2022/03/29 11:59:06;;;;;;;6.07;2.87;;;;;;;;;;5055086;28;20282;-72
2022/03/29 12:01:34;;;;;;;7.57;2.87;;;;;;;;;;5049738;28;20274;-72
2022/03/29 12:04:03;;;;;;;6.37;2.87;;;;;;;;;;5049973;28;20266;-72
2022/03/29 12:06:33;;;;;;;6.93;3.60;;;;;;;;;;5049735;28;20325;-72
2022/03/29 12:09:01;;;;;;;4.90;3.10;;;;;;;;;;5049962;28;20250;-72
2022/03/29 12:11:28;;;;;;;8.47;3.13;;;;;;;;;;5058516;28;20293;-72
2022/03/29 12:14:14;;;;;;;7.03;2.67;;;;;;;;;;5075111;28;20260;-72
2022/03/29 12:16:42;;;;;;;4.93;2.80;;;;;;;;;;5074911;28;20249;-72
2022/03/29 12:19:15;;;;;;;8.27;3.20;;;;;;;;;;5073400;28;20253;-72
2022/03/29 12:21:45;;;;;;;8.93;4.37;;;;;;;;;;5073704;28;20813;-72
2022/03/29 12:24:13;;;;;;;8.27;4.27;;;;;;;;;;5069559;28;20261;-72
2022/03/29 12:26:42;;;;;;;8.40;3.27;;;;;;;;;;5069527;28;20281;-72
2022/03/29 12:29:13;;;;;;;11.47;3.80;;;;;;;;;;5069528;28;20732;-72
2022/03/29 12:31:40;;;;;;;9.77;3.20;;;;;;;;;;5070080;28;20245;-72
2022/03/29 12:34:07;;;;;;;9.23;3.87;;;;;;;;;;5074704;28;20261;-72
2022/03/29 12:36:34;;;;;;;8.00;2.63;;;;;;;;;;5075002;28;20574;-73
2022/03/29 12:39:02;;;;;;;5.53;3.03;;;;;;;;;;5074668;28;20289;-73
2022/03/29 12:41:33;;;;;;;7.07;2.47;;;;;;;;;;5059543;28;20270;-71
2022/03/29 12:44:00;;;;;;;6.60;2.67;;;;;;;;;;5052640;28;20608;-71
2022/03/29 12:46:28;;;;;;;8.13;2.70;;;;;;;;;;5049081;28;20286;-71
2022/03/29 12:48:55;;;;;;;8.83;2.83;;;;;;;;;;5049013;28;20681;-70
2022/03/29 12:51:29;;;;;;;9.63;3.03;;;;;;;;;;5049091;28;20254;-71
2022/03/29 12:54:00;;;;;;;6.03;2.60;;;;;;;;;;5050058;28;20262;-71
2022/03/29 12:56:31;;;;;;;5.17;2.83;;;;;;;;;;5054009;28;20767;-73
2022/03/29 12:58:58;;;;;;;7.57;3.00;;;;;;;;;;5054185;28;20258;-73
2022/03/29 13:01:29;;;;;;;5.73;2.80;;;;;;;;;;5054171;28;20326;-72
2022/03/29 13:04:10;;;;;;;11.53;2.90;;;;;;;;;;5059546;28;20280;-72
2022/03/29 13:06:42;;;;;;;6.63;3.97;;;;;;;;;;5071647;28;20281;-73
2022/03/29 13:09:19;;;;;;;6.80;3.53;;;;;;;;;;5068818;28;20348;-73
2022/03/29 13:11:45;;;;;;;9.30;3.70;;;;;;;;;;5068648;28;20330;-73
2022/03/29 13:14:12;;;;;;;8.27;3.40;;;;;;;;;;5068733;28;20280;-71
2022/03/29 13:16:50;;;;;;;6.00;3.30;;;;;;;;;;5070533;28;20771;-71
2022/03/29 13:19:17;;;;;;;110.77;30.20;;;;;;;;;;5073500;28;20253;-71
2022/03/29 13:21:45;;;;;;;86.23;26.40;;;;;;;;;;5073652;28;20297;-71
2022/03/29 13:24:16;;;;;;;145.57;37.13;;;;;;;;;;5073539;28;20257;-71
2022/03/29 13:26:46;;;;;;;63.77;19.17;;;;;;;;;;5073489;28;20764;-71
2022/03/29 13:29:13;;;;;;;31.50;10.23;;;;;;;;;;5070527;28;20253;-71
2022/03/29 13:31:41;;;;;;;16.93;5.77;;;;;;;;;;5054689;28;20270;-71
2022/03/29 13:34:09;;;;;;;25.73;8.60;;;;;;;;;;5048192;28;20289;-71
2022/03/29 13:36:36;;;;;;;50.70;15.57;;;;;;;;;;5048336;28;20258;-71
2022/03/29 13:39:05;;;;;;;47.83;23.63;;;;;;;;;;5050682;28;20242;-73
2022/03/29 13:41:31;;;;;;;43.03;22.37;;;;;;;;;;5053191;28;20255;-71
2022/03/29 13:43:58;;;;;;;31.10;18.13;;;;;;;;;;5053247;28;20729;-71
2022/03/29 13:46:25;;;;;;;46.33;24.57;;;;;;;;;;5052734;28;20029;-71
2022/03/29 13:48:52;;;;;;;50.30;30.40;;;;;;;;;;5053043;28;20037;-71
2022/03/29 13:51:19;;;;;;;40.87;21.80;;;;;;;;;;5050507;28;20037;-71
2022/03/29 13:53:46;;;;;;;35.77;20.23;;;;;;;;;;5047914;28;20029;-71
2022/03/29 13:56:14;;;;;;;27.43;15.93;;;;;;;;;;5047859;28;20031;-72
2022/03/29 13:58:40;;;;;;;21.50;11.90;;;;;;;;;;5047649;28;20027;-72
2022/03/29 14:01:07;;;;;;;23.33;11.23;;;;;;;;;;5050996;28;20112;-72
2022/03/29 14:03:34;;;;;;;21.50;9.57;;;;;;;;;;5051982;28;20029;-72
2022/03/29 14:06:01;;;;;;;12.07;8.17;;;;;;;;;;5052755;28;20549;-72
2022/03/29 14:08:28;;;;;;;16.87;7.03;;;;;;;;;;5052923;28;20511;-72
2022/03/29 14:10:57;;;;;;;14.20;7.83;;;;;;;;;;5052788;28;20023;-72
2022/03/29 14:13:27;;;;;;;10.60;6.70;;;;;;;;;;5050186;28;20027;-72
2022/03/29 14:15:55;;;;;;;12.33;5.50;;;;;;;;;;5047616;28;20096;-72
2022/03/29 14:18:23;;;;;;;14.97;5.60;;;;;;;;;;5047387;28;20024;-72
2022/03/29 14:20:50;;;;;;;11.97;5.67;;;;;;;;;;5047636;28;20037;-72
2022/03/29 14:23:19;;;;;;;10.43;6.03;;;;;;;;;;5049658;28;20049;-72
2022/03/29 14:25:46;;;;;;;16.03;6.03;;;;;;;;;;5052426;28;20036;-72
2022/03/29 14:28:13;;;;;;;10.77;5.70;;;;;;;;;;5055682;28;20145;-72
2022/03/29 14:30:40;;;;;;;7.43;4.77;;;;;;;;;;5072376;28;20040;-72
2022/03/29 14:33:07;;;;;;;7.83;4.70;;;;;;;;;;5072307;28;20074;-72
2022/03/29 14:35:34;;;;;;;13.90;5.47;;;;;;;;;;5068971;28;20083;-72
2022/03/29 14:38:01;;;;;;;16.93;6.50;;;;;;;;;;5066912;28;20063;-72
2022/03/29 14:40:29;;;;;;;13.47;5.30;;;;;;;;;;5066826;28;20028;-72
2022/03/29 14:42:57;;;;;;;13.00;5.07;;;;;;;;;;5067051;28;20045;-73
2022/03/29 14:45:23;;;;;;;15.97;7.87;;;;;;;;;;5068678;28;20033;-73
2022/03/29 14:47:50;;;;;;;22.53;8.93;;;;;;;;;;5071675;28;20397;-74
2022/03/29 14:50:19;;;;;;;22.70;8.90;;;;;;;;;;5072221;28;20375;-73
2022/03/29 14:52:47;;;;;;;16.07;8.70;;;;;;;;;;5072069;28;20051;-73
2022/03/29 14:55:15;;;;;;;21.33;9.30;;;;;;;;;;5070329;28;20033;-74
2022/03/29 14:57:42;;;;;;;19.30;8.30;;;;;;;;;;5069649;28;20035;-74